createdAt,value
2022-10-22T00:01:48.301Z,100631.97
2022-10-22T00:04:14.866Z,100631.59
2022-10-22T00:06:42.692Z,100629.94
2022-10-22T00:09:09.163Z,100633.06
2022-10-22T00:11:36.644Z,100635.75
2022-10-22T00:14:03.316Z,100634.53
2022-10-22T00:16:29.850Z,100631.25
2022-10-22T00:18:56.413Z,100630.81
2022-10-22T00:21:22.841Z,100636.97
2022-10-22T00:23:49.540Z,100634.53
2022-10-22T00:26:15.898Z,100637.19
2022-10-22T00:28:42.396Z,100641.31
2022-10-22T00:31:08.789Z,100644.44
2022-10-22T00:33:35.241Z,100650.03
2022-10-22T00:36:04.316Z,100641.22
2022-10-22T00:38:30.722Z,100658.09
2022-10-22T00:40:57.251Z,100656.00
2022-10-22T00:43:23.769Z,100657.66
2022-10-22T00:45:50.270Z,100653.47
2022-10-22T00:48:22.051Z,100654.09
2022-10-22T00:50:58.206Z,100652.84
2022-10-22T00:53:37.716Z,100656.31
2022-10-22T00:56:05.278Z,100660.00
2022-10-22T00:58:36.490Z,100664.53
2022-10-22T01:01:05.084Z,100668.66
2022-10-22T01:03:33.397Z,100669.28
2022-10-22T01:06:03.431Z,100673.38
2022-10-22T01:08:46.642Z,100637.75
2022-10-22T01:11:33.282Z,100659.50
2022-10-22T01:14:11.683Z,100670.22
2022-10-22T01:16:52.068Z,100676.75
2022-10-22T01:19:54.719Z,100658.69
2022-10-22T01:22:42.810Z,100671.19
2022-10-22T01:25:42.338Z,100673.47
2022-10-22T01:28:14.645Z,100673.06
2022-10-22T01:30:42.310Z,100671.84
2022-10-22T01:33:13.126Z,100670.38
2022-10-22T01:35:44.249Z,100645.13
2022-10-22T01:38:15.055Z,100657.19
2022-10-22T01:40:42.747Z,100664.16
2022-10-22T01:43:11.110Z,100672.22
2022-10-22T01:45:45.604Z,100673.47
2022-10-22T01:48:45.716Z,100663.94
2022-10-22T01:51:41.549Z,100679.22
2022-10-22T01:54:07.978Z,100671.63
2022-10-22T01:56:43.531Z,100663.78
2022-10-22T01:59:41.598Z,100637.13
2022-10-22T02:02:36.943Z,100666.69
2022-10-22T02:05:13.002Z,100661.16
2022-10-22T02:07:46.811Z,100658.69
2022-10-22T02:10:14.256Z,100662.00
2022-10-22T02:12:43.721Z,100663.63
2022-10-22T02:15:13.381Z,100638.38
2022-10-22T02:17:43.039Z,100664.47
2022-10-22T02:20:22.709Z,100641.59
2022-10-22T02:22:49.899Z,100662.34
2022-10-22T02:25:16.723Z,100661.31
2022-10-22T02:27:51.717Z,100661.16
2022-10-22T02:30:20.756Z,100664.22
2022-10-22T02:32:56.195Z,100663.78
2022-10-22T02:35:25.696Z,100660.03
2022-10-22T02:37:55.285Z,100654.91
2022-10-22T02:40:22.378Z,100657.16
2022-10-22T02:42:50.467Z,100657.16
2022-10-22T02:45:18.421Z,100659.19
2022-10-22T02:47:44.985Z,100660.75
2022-10-22T02:50:11.597Z,100643.28
2022-10-22T02:52:39.151Z,100655.59
2022-10-22T02:55:06.786Z,100656.88
2022-10-22T02:57:35.419Z,100660.38
2022-10-22T03:00:04.236Z,100658.75
2022-10-22T03:02:30.686Z,100658.28
2022-10-22T03:04:57.938Z,100655.38
2022-10-22T03:07:25.470Z,100657.84
2022-10-22T03:09:51.861Z,100653.97
2022-10-22T03:12:18.303Z,100649.78
2022-10-22T03:14:44.671Z,100661.13
2022-10-22T03:17:11.135Z,100656.66
2022-10-22T03:19:37.590Z,100662.63
2022-10-22T03:22:11.451Z,100643.75
2022-10-22T03:24:50.674Z,100661.41
2022-10-22T03:27:20.300Z,100643.56
2022-10-22T03:29:47.734Z,100661.19
2022-10-22T03:32:14.751Z,100664.94
2022-10-22T03:34:41.193Z,100663.88
2022-10-22T03:37:07.644Z,100655.81
2022-10-22T03:39:37.035Z,100668.22
2022-10-22T03:42:05.427Z,100658.56
2022-10-22T03:44:32.619Z,100664.09
2022-10-22T03:47:01.773Z,100669.69
2022-10-22T03:49:29.278Z,100678.22
2022-10-22T03:51:55.811Z,100673.47
2022-10-22T03:54:22.605Z,100680.28
2022-10-22T03:56:48.962Z,100678.44
2022-10-22T03:59:15.645Z,100682.97
2022-10-22T04:01:43.108Z,100680.94
2022-10-22T04:04:09.493Z,100674.59
2022-10-22T04:06:35.955Z,100694.97
2022-10-22T04:09:02.658Z,100698.03
2022-10-22T04:11:29.178Z,100695.34
2022-10-22T04:13:55.674Z,100695.34
2022-10-22T04:16:25.057Z,100691.63
2022-10-22T04:18:53.906Z,100689.81
2022-10-22T04:21:20.338Z,100691.41
2022-10-22T04:23:48.407Z,100698.41
2022-10-22T04:26:15.674Z,100700.31
2022-10-22T04:28:42.743Z,100695.50
2022-10-22T04:31:15.115Z,100701.94
2022-10-22T04:33:41.755Z,100703.19
2022-10-22T04:36:15.363Z,100686.50
2022-10-22T04:38:43.765Z,100703.78
2022-10-22T04:41:19.986Z,100694.31
2022-10-22T04:43:47.153Z,100704.41
2022-10-22T04:46:18.259Z,100695.19
2022-10-22T04:48:45.950Z,100704.22
2022-10-22T04:51:16.227Z,100706.91
2022-10-22T04:53:43.287Z,100716.19
2022-10-22T04:56:12.609Z,100706.16
2022-10-22T04:58:39.559Z,100714.97
2022-10-22T05:01:13.833Z,100708.59
2022-10-22T05:03:40.713Z,100720.72
2022-10-22T05:06:07.965Z,100726.09
2022-10-22T05:08:35.160Z,100723.03
2022-10-22T05:11:01.644Z,100727.00
2022-10-22T05:13:28.088Z,100734.44
2022-10-22T05:15:54.590Z,100733.59
2022-10-22T05:18:22.615Z,100736.72
2022-10-22T05:20:49.165Z,100734.06
2022-10-22T05:23:15.601Z,100740.22
2022-10-22T05:25:41.977Z,100741.28
2022-10-22T05:28:08.465Z,100735.47
2022-10-22T05:30:35.190Z,100747.03
2022-10-22T05:33:01.630Z,100736.72
2022-10-22T05:35:28.023Z,100734.28
2022-10-22T05:37:54.392Z,100733.66
2022-10-22T05:40:30.608Z,100743.75
2022-10-22T05:42:58.673Z,100728.50
2022-10-22T05:45:25.129Z,100740.84
2022-10-22T05:47:51.534Z,100745.78
2022-10-22T05:50:17.984Z,100737.13
2022-10-22T05:52:44.342Z,100744.75
2022-10-22T05:55:10.757Z,100750.94
2022-10-22T05:57:37.165Z,100751.34
2022-10-22T06:00:04.185Z,100752.41
2022-10-22T06:02:30.611Z,100759.63
2022-10-22T06:04:57.010Z,100763.38
2022-10-22T06:07:23.562Z,100762.59
2022-10-22T06:09:53.765Z,100773.09
2022-10-22T06:12:20.158Z,100777.22
2022-10-22T06:14:46.628Z,100768.19
2022-10-22T06:17:13.436Z,100767.34
2022-10-22T06:19:39.842Z,100771.69
2022-10-22T06:22:07.289Z,100778.69
2022-10-22T06:24:33.715Z,100780.56
2022-10-22T06:27:00.159Z,100786.31
2022-10-22T06:29:26.536Z,100782.81
2022-10-22T06:31:52.924Z,100781.16
2022-10-22T06:34:19.605Z,100789.81
2022-10-22T06:36:46.920Z,100791.25
2022-10-22T06:39:15.618Z,100794.53
2022-10-22T06:41:42.325Z,100799.50
2022-10-22T06:44:15.565Z,100813.13
2022-10-22T06:46:43.535Z,100814.38
2022-10-22T06:49:14.252Z,100815.00
2022-10-22T06:51:40.853Z,100818.72
2022-10-22T06:54:07.584Z,100819.53
2022-10-22T06:56:34.014Z,100823.84
2022-10-22T06:59:00.406Z,100829.44
2022-10-22T07:01:31.290Z,100817.91
2022-10-22T07:03:58.996Z,100818.09
2022-10-22T07:06:26.986Z,100824.69
2022-10-22T07:08:57.727Z,100837.69
2022-10-22T07:11:27.217Z,100821.19
2022-10-22T07:13:55.667Z,100816.03
2022-10-22T07:16:22.165Z,100828.00
2022-10-22T07:18:48.632Z,100842.81
2022-10-22T07:21:17.278Z,100833.41
2022-10-22T07:23:44.627Z,100854.81
2022-10-22T07:26:13.796Z,100856.66
2022-10-22T07:28:41.125Z,100870.91
2022-10-22T07:31:09.801Z,100871.75
2022-10-22T07:33:37.343Z,100883.09
2022-10-22T07:36:07.207Z,100886.59
2022-10-22T07:38:34.773Z,100889.94
2022-10-22T07:41:01.237Z,100891.34
2022-10-22T07:43:27.788Z,100895.72
2022-10-22T07:45:55.906Z,100886.41
2022-10-22T07:48:23.612Z,100897.78
2022-10-22T07:50:51.014Z,100909.97
2022-10-22T07:53:17.664Z,100907.06
2022-10-22T07:55:44.133Z,100905.56
2022-10-22T07:58:10.559Z,100909.94
2022-10-22T08:00:37.681Z,100912.19
2022-10-22T08:03:04.212Z,100911.34
2022-10-22T08:05:30.574Z,100899.00
2022-10-22T08:07:56.985Z,100914.66
2022-10-22T08:10:23.417Z,100928.88
2022-10-22T08:12:49.874Z,100939.63
2022-10-22T08:15:16.295Z,100930.16
2022-10-22T08:17:43.089Z,100941.50
2022-10-22T08:20:10.209Z,100946.00
2022-10-22T08:22:36.666Z,100952.22
2022-10-22T08:25:03.266Z,100953.06
2022-10-22T08:27:30.745Z,100950.81
2022-10-22T08:29:57.122Z,100962.13
2022-10-22T08:32:23.666Z,100965.47
2022-10-22T08:34:50.128Z,100963.41
2022-10-22T08:37:17.704Z,100967.50
2022-10-22T08:39:45.032Z,100973.31
2022-10-22T08:42:36.349Z,100976.59
2022-10-22T08:45:25.249Z,100975.34
2022-10-22T08:48:00.438Z,100975.56
2022-10-22T08:50:41.850Z,100978.03
2022-10-22T08:53:17.384Z,100992.03
2022-10-22T08:55:44.782Z,100990.97
2022-10-22T08:58:29.479Z,100997.19
2022-10-22T09:01:01.072Z,100990.63
2022-10-22T09:03:36.434Z,101000.13
2022-10-22T09:06:11.979Z,101001.78
2022-10-22T09:08:41.978Z,101012.97
2022-10-22T09:11:11.388Z,101002.94
2022-10-22T09:13:40.121Z,101003.56
2022-10-22T09:16:34.179Z,101005.75
2022-10-22T09:19:29.719Z,100984.78
2022-10-22T09:22:23.918Z,101017.63
2022-10-22T09:25:01.042Z,101017.13
2022-10-22T09:27:30.882Z,101007.25
2022-10-22T09:29:57.494Z,101025.69
2022-10-22T09:32:25.386Z,101002.59
2022-10-22T09:34:56.345Z,101020.09
2022-10-22T09:37:26.491Z,101029.88
2022-10-22T09:39:55.761Z,101036.22
2022-10-22T09:42:22.401Z,101024.16
2022-10-22T09:44:57.953Z,101049.66
2022-10-22T09:47:43.718Z,101044.91
2022-10-22T09:50:27.309Z,101046.41
2022-10-22T09:53:01.683Z,101048.06
2022-10-22T09:55:28.542Z,101054.03
2022-10-22T09:57:57.991Z,101043.91
2022-10-22T10:00:25.769Z,101055.06
2022-10-22T10:02:59.853Z,101057.00
2022-10-22T10:05:31.531Z,101062.13
2022-10-22T10:07:59.369Z,101062.34
2022-10-22T10:10:37.677Z,101072.50
2022-10-22T10:13:24.231Z,101050.31
2022-10-22T10:16:18.390Z,101073.09
2022-10-22T10:19:06.360Z,101065.88
2022-10-22T10:21:32.804Z,101075.16
2022-10-22T10:24:45.141Z,101063.81
2022-10-22T10:27:20.385Z,101043.97
2022-10-22T10:30:18.558Z,101058.97
2022-10-22T10:33:08.813Z,101074.50
2022-10-22T10:35:50.810Z,101068.41
2022-10-22T10:38:35.940Z,101075.22
2022-10-22T10:41:22.987Z,101060.91
2022-10-22T10:44:17.109Z,101070.06
2022-10-22T10:46:59.516Z,101081.81
2022-10-22T10:49:27.140Z,101081.94
2022-10-22T10:52:04.478Z,101081.13
2022-10-22T10:55:08.346Z,101086.34
2022-10-22T10:58:18.918Z,101099.91
2022-10-22T11:01:15.833Z,101092.34
2022-10-22T11:04:20.321Z,101096.81
2022-10-22T11:06:46.957Z,101095.19
2022-10-22T11:09:19.275Z,101091.38
2022-10-22T11:11:51.597Z,101097.31
2022-10-22T11:14:25.218Z,101106.16
2022-10-22T11:17:04.543Z,101107.38
2022-10-22T11:19:51.633Z,101091.06
2022-10-22T11:22:50.467Z,101111.47
2022-10-22T11:25:43.368Z,101104.06
2022-10-22T11:28:18.225Z,101117.47
2022-10-22T11:30:49.649Z,101104.28
2022-10-22T11:33:21.333Z,101100.78
2022-10-22T11:35:49.407Z,101117.94
2022-10-22T11:38:20.329Z,101123.75
2022-10-22T11:41:10.914Z,101125.22
2022-10-22T11:43:55.424Z,101131.41
2022-10-22T11:46:21.802Z,101138.16
2022-10-22T11:49:13.894Z,101136.63
2022-10-22T11:51:43.037Z,101143.00
2022-10-22T11:54:42.264Z,101150.75
2022-10-22T11:57:14.824Z,101157.00
2022-10-22T11:59:50.098Z,101162.78
2022-10-22T12:02:28.682Z,101161.13
2022-10-22T12:05:15.927Z,101151.84
2022-10-22T12:08:00.092Z,101150.31
2022-10-22T12:10:33.973Z,101149.94
2022-10-22T12:13:27.162Z,101151.97
2022-10-22T12:15:57.585Z,101153.13
2022-10-22T12:18:34.367Z,101158.66
2022-10-22T12:21:00.860Z,101164.75
2022-10-22T12:23:34.287Z,101156.53
2022-10-22T12:26:00.742Z,101156.19
2022-10-22T12:28:27.107Z,101153.81
2022-10-22T12:30:53.609Z,101158.63
2022-10-22T12:33:22.986Z,101153.22
2022-10-22T12:35:53.073Z,101171.19
2022-10-22T12:38:24.170Z,101164.38
2022-10-22T12:40:53.981Z,101171.31
2022-10-22T12:43:26.316Z,101166.97
2022-10-22T12:45:53.520Z,101171.88
2022-10-22T12:48:40.254Z,101156.09
2022-10-22T12:51:09.499Z,101137.91
2022-10-22T12:53:39.233Z,101143.19
2022-10-22T12:56:11.665Z,101156.59
2022-10-22T12:58:45.738Z,101159.75
2022-10-22T13:01:15.104Z,101164.09
2022-10-22T13:04:03.526Z,101158.25
2022-10-22T13:06:29.906Z,101157.19
2022-10-22T13:08:59.277Z,101162.72
2022-10-22T13:11:40.777Z,101163.53
2022-10-22T13:14:19.500Z,101162.22
2022-10-22T13:17:07.182Z,101174.66
2022-10-22T13:19:40.041Z,101147.63
2022-10-22T13:22:25.688Z,101167.25
2022-10-22T13:24:52.634Z,101165.13
2022-10-22T13:27:19.953Z,101169.56
2022-10-22T13:29:46.597Z,101170.94
2022-10-22T13:32:33.657Z,101166.84
2022-10-22T13:35:02.201Z,101135.78
2022-10-22T13:37:31.078Z,101166.84
2022-10-22T13:39:57.702Z,101176.34
2022-10-22T13:42:24.733Z,101169.53
2022-10-22T13:44:51.265Z,101168.47
2022-10-22T13:47:29.425Z,101156.91
2022-10-22T13:49:58.651Z,101172.31
2022-10-22T13:52:38.671Z,101159.22
2022-10-22T13:55:26.855Z,101168.06
2022-10-22T13:57:56.377Z,101173.91
2022-10-22T14:00:25.654Z,101175.94
2022-10-22T14:02:56.866Z,101177.13
2022-10-22T14:05:23.620Z,101182.53
2022-10-22T14:07:50.266Z,101181.78
2022-10-22T14:10:24.892Z,101176.38
2022-10-22T14:12:55.701Z,101185.31
2022-10-22T14:15:24.164Z,101182.72
2022-10-22T14:17:56.081Z,101180.63
2022-10-22T14:20:26.288Z,101172.38
2022-10-22T14:22:53.990Z,101195.50
2022-10-22T14:25:22.858Z,101194.09
2022-10-22T14:27:49.984Z,101203.84
2022-10-22T14:30:23.066Z,101200.41
2022-10-22T14:32:49.785Z,101203.09
2022-10-22T14:35:19.417Z,101204.16
2022-10-22T14:37:46.093Z,101208.34
2022-10-22T14:40:15.178Z,101202.50
2022-10-22T14:42:44.211Z,101202.53
2022-10-22T14:45:24.161Z,101207.09
2022-10-22T14:47:51.632Z,101211.66
2022-10-22T14:50:18.993Z,101215.41
2022-10-22T14:52:45.558Z,101213.28
2022-10-22T14:55:14.712Z,101211.41
2022-10-22T14:57:42.046Z,101206.25
2022-10-22T15:00:13.770Z,101203.38
2022-10-22T15:02:40.442Z,101206.84
2022-10-22T15:05:07.815Z,101216.81
2022-10-22T15:07:34.609Z,101207.09
2022-10-22T15:10:01.071Z,101212.03
2022-10-22T15:12:27.551Z,101211.88
2022-10-22T15:14:53.882Z,101217.50
2022-10-22T15:17:20.307Z,101219.56
2022-10-22T15:19:47.776Z,101224.34
2022-10-22T15:22:15.022Z,101227.75
2022-10-22T15:24:45.255Z,101223.38
2022-10-22T15:27:15.041Z,101229.47
2022-10-22T15:29:42.321Z,101234.00
2022-10-22T15:32:11.592Z,101234.00
2022-10-22T15:34:39.194Z,101235.53
2022-10-22T15:37:12.007Z,101232.31
2022-10-22T15:39:42.070Z,101231.91
2022-10-22T15:42:09.537Z,101225.78
2022-10-22T15:44:36.439Z,101239.84
2022-10-22T15:47:04.364Z,101225.47
2022-10-22T15:49:30.846Z,101244.72
2022-10-22T15:51:57.281Z,101247.63
2022-10-22T15:54:28.531Z,101246.41
2022-10-22T15:56:59.962Z,101244.41
2022-10-22T15:59:26.492Z,101246.53
2022-10-22T16:01:52.915Z,101251.09
2022-10-22T16:04:19.983Z,101239.31
2022-10-22T16:06:54.820Z,101243.97
2022-10-22T16:09:27.012Z,101254.97
2022-10-22T16:11:54.713Z,101253.97
2022-10-22T16:14:23.471Z,101245.56
2022-10-22T16:16:54.256Z,101253.03
2022-10-22T16:19:22.766Z,101248.94
2022-10-22T16:21:51.263Z,101266.16
2022-10-22T16:24:18.394Z,101259.53
2022-10-22T16:26:44.941Z,101262.69
2022-10-22T16:29:12.588Z,101260.03
2022-10-22T16:31:40.869Z,101268.97
2022-10-22T16:34:08.003Z,101259.94
2022-10-22T16:36:36.208Z,101262.06
2022-10-22T16:39:03.769Z,101270.75
2022-10-22T16:41:35.128Z,101258.81
2022-10-22T16:44:04.458Z,101272.06
2022-10-22T16:46:31.260Z,101272.69
2022-10-22T16:48:57.903Z,101265.69
2022-10-22T16:51:25.960Z,101265.50
2022-10-22T16:53:53.189Z,101275.03
2022-10-22T16:56:20.231Z,101274.19
2022-10-22T16:58:57.426Z,101275.03
2022-10-22T17:01:26.431Z,101276.50
2022-10-22T17:03:54.717Z,101293.47
2022-10-22T17:06:23.945Z,101291.22
2022-10-22T17:08:51.526Z,101279.44
2022-10-22T17:11:21.186Z,101295.34
2022-10-22T17:13:49.783Z,101293.50
2022-10-22T17:16:17.946Z,101283.34
2022-10-22T17:21:18.877Z,101298.25
2022-10-22T17:23:46.208Z,101294.13
2022-10-22T17:26:22.606Z,101288.94
2022-10-22T17:28:49.987Z,101293.06
2022-10-22T17:31:20.213Z,101292.63
2022-10-22T17:33:48.116Z,101293.91
2022-10-22T17:36:16.110Z,101298.44
2022-10-22T17:38:43.691Z,101303.19
2022-10-22T17:41:17.474Z,101301.38
2022-10-22T17:46:15.797Z,101314.59
2022-10-22T17:48:42.261Z,101303.63
2022-10-22T17:51:10.320Z,101302.38
2022-10-22T17:53:40.296Z,101289.75
2022-10-22T17:56:09.979Z,101287.88
2022-10-22T17:58:37.217Z,101307.34
2022-10-22T18:01:04.796Z,101310.66
2022-10-22T18:03:33.199Z,101312.28
2022-10-22T18:06:07.381Z,101312.28
2022-10-22T18:08:33.933Z,101323.88
2022-10-22T18:11:00.464Z,101315.81
2022-10-22T18:13:26.867Z,101322.59
2022-10-22T18:15:57.099Z,101324.28
2022-10-22T18:18:24.036Z,101328.59
2022-10-22T18:20:51.962Z,101330.88
2022-10-22T18:23:19.472Z,101328.41
2022-10-22T18:25:48.546Z,101314.34
2022-10-22T18:28:18.041Z,101336.25
2022-10-22T18:30:45.739Z,101318.44
2022-10-22T18:33:18.550Z,101311.22
2022-10-22T18:35:47.925Z,101314.91
2022-10-22T18:38:14.434Z,101322.75
2022-10-22T18:40:46.417Z,101324.00
2022-10-22T18:43:12.937Z,101324.63
2022-10-22T18:45:46.978Z,101316.56
2022-10-22T18:48:16.456Z,101321.50
2022-10-22T18:50:43.178Z,101324.19
2022-10-22T18:53:10.276Z,101319.19
2022-10-22T18:55:39.766Z,101320.00
2022-10-22T18:58:06.954Z,101320.41
2022-10-22T19:00:35.652Z,101325.78
2022-10-22T19:03:03.335Z,101327.22
2022-10-22T19:05:29.920Z,101316.91
2022-10-22T19:07:56.349Z,101311.75
2022-10-22T19:10:22.819Z,101315.69
2022-10-22T19:12:49.184Z,101315.69
2022-10-22T19:15:16.274Z,101318.16
2022-10-22T19:17:42.879Z,101303.91
2022-10-22T19:20:10.473Z,101305.56
2022-10-22T19:22:37.946Z,101303.69
2022-10-22T19:25:06.010Z,101309.88
2022-10-22T19:27:36.361Z,101308.22
2022-10-22T19:30:04.567Z,101304.25
2022-10-22T19:32:31.203Z,101307.53
2022-10-22T19:34:57.824Z,101311.69
2022-10-22T19:37:24.260Z,101311.84
2022-10-22T19:39:50.723Z,101306.66
2022-10-22T19:42:17.132Z,101303.34
2022-10-22T19:44:43.479Z,101304.34
2022-10-22T19:47:11.350Z,101307.47
2022-10-22T19:49:37.913Z,101315.91
2022-10-22T19:52:04.390Z,101313.22
2022-10-22T19:54:30.755Z,101319.63
2022-10-22T19:56:57.163Z,101322.13
2022-10-22T19:59:26.266Z,101318.00
2022-10-22T20:01:55.119Z,101326.91
2022-10-22T20:04:25.112Z,101325.03
2022-10-22T20:06:51.770Z,101316.59
2022-10-22T20:09:18.177Z,101319.28
2022-10-22T20:11:44.674Z,101326.50
2022-10-22T20:14:11.301Z,101330.03
2022-10-22T20:16:38.339Z,101322.34
2022-10-22T20:19:07.647Z,101317.78
2022-10-22T20:21:35.031Z,101301.41
2022-10-22T20:24:01.653Z,101319.38
2022-10-22T20:26:28.849Z,101318.38
2022-10-22T20:28:57.115Z,101305.94
2022-10-22T20:31:27.002Z,101304.28
2022-10-22T20:33:55.909Z,101307.97
2022-10-22T20:36:23.443Z,101306.53
2022-10-22T20:38:50.947Z,101302.59
2022-10-22T20:41:23.072Z,101314.19
2022-10-22T20:43:51.513Z,101316.66
2022-10-22T20:46:24.261Z,101307.16
2022-10-22T20:48:55.224Z,101308.38
2022-10-22T20:51:21.954Z,101317.91
2022-10-22T20:53:48.367Z,101306.97
2022-10-22T20:56:16.417Z,101312.34
2022-10-22T20:58:47.991Z,101295.53
2022-10-22T21:01:21.539Z,101321.19
2022-10-22T21:03:49.832Z,101318.72
2022-10-22T21:06:16.402Z,101324.72
2022-10-22T21:08:42.892Z,101326.75
2022-10-22T21:11:09.364Z,101330.06
2022-10-22T21:13:35.855Z,101334.16
2022-10-22T21:16:10.677Z,101316.44
2022-10-22T21:18:37.239Z,101320.94
2022-10-22T21:21:05.673Z,101317.19
2022-10-22T21:23:32.705Z,101326.72
2022-10-22T21:25:59.838Z,101325.25
2022-10-22T21:28:26.950Z,101329.53
2022-10-22T21:30:53.561Z,101329.53
2022-10-22T21:33:20.743Z,101325.56
2022-10-22T21:35:52.168Z,101324.09
2022-10-22T21:38:19.179Z,101337.66
2022-10-22T21:40:45.733Z,101335.81
2022-10-22T21:43:12.241Z,101330.84
2022-10-22T21:45:38.943Z,101328.56
2022-10-22T21:48:05.749Z,101320.28
2022-10-22T21:50:32.367Z,101329.97
2022-10-22T21:52:58.756Z,101328.13
2022-10-22T21:55:25.271Z,101324.16
2022-10-22T21:57:51.670Z,101324.16
2022-10-22T22:00:21.227Z,101319.00
2022-10-22T22:02:48.270Z,101315.88
2022-10-22T22:05:17.136Z,101304.97
2022-10-22T22:07:43.537Z,101301.66
2022-10-22T22:10:09.981Z,101300.63
2022-10-22T22:12:36.483Z,101306.44
2022-10-22T22:15:02.977Z,101301.72
2022-10-22T22:17:29.398Z,101300.88
2022-10-22T22:19:56.825Z,101306.25
2022-10-22T22:22:23.453Z,101286.00
2022-10-22T22:24:49.791Z,101299.28
2022-10-22T22:27:17.318Z,101304.19
2022-10-22T22:29:44.024Z,101306.47
2022-10-22T22:32:14.148Z,101304.84
2022-10-22T22:34:40.773Z,101291.59
2022-10-22T22:37:07.979Z,101296.16
2022-10-22T22:39:34.431Z,101298.19
2022-10-22T22:42:00.810Z,101299.84
2022-10-22T22:44:27.385Z,101298.41
2022-10-22T22:46:53.795Z,101297.34
2022-10-22T22:49:20.440Z,101299.84
2022-10-22T22:51:46.904Z,101299.84
2022-10-22T22:54:13.314Z,101283.16
2022-10-22T22:56:39.801Z,101271.34
2022-10-22T22:59:06.514Z,101282.72
2022-10-22T23:01:35.809Z,101280.84
2022-10-22T23:04:11.010Z,101279.41
2022-10-22T23:06:37.992Z,101276.72
2022-10-22T23:09:07.477Z,101272.38
2022-10-22T23:11:34.386Z,101273.19
2022-10-22T23:14:03.868Z,101270.91
2022-10-22T23:16:33.278Z,101269.06
2022-10-22T23:19:00.711Z,101261.03
2022-10-22T23:21:32.974Z,101266.19
2022-10-22T23:24:01.378Z,101264.53
2022-10-22T23:26:30.819Z,101256.88
2022-10-22T23:29:05.908Z,101249.69
2022-10-22T23:31:32.594Z,101260.84
2022-10-22T23:33:59.235Z,101251.13
2022-10-22T23:36:25.671Z,101251.56
2022-10-22T23:38:52.549Z,101251.56
2022-10-22T23:41:18.932Z,101251.38
2022-10-22T23:43:45.629Z,101246.00
2022-10-22T23:46:13.215Z,101245.25
2022-10-22T23:48:39.952Z,101232.84
2022-10-22T23:51:11.432Z,101239.25
2022-10-22T23:53:38.077Z,101236.75
2022-10-22T23:56:10.013Z,101246.44
2022-10-22T23:58:39.205Z,101244.16
